Strona główna
METAR-TAF:

METAR-TAF

Lotnisko :

Port lotniczy Mitiga

Trypolis, Libia

Szerokość geograficzna: 32-54N, Długość geograficzna: 13-17E, wysokość: 11 m

METAR: brakujący

czas: 13:02 (11:02 UTC)

Prognoza

Raport powstał 6 godziny i 2 minut temu, godzina 05:00 UTC
Prognoza ważna od 18 godzina 06 UTC do 19 godzina 06 UTC
Wiatr 2 kt z kierunków zmiennych
Widzialność: 8000 m
Mało chmury na wysokości 3000 ft
Stopniowe zmiany
od 18 godzina 15 UTC do 18 godzina 17 UTC
Wiatr 10 kt od wschodnio-północny wschód
Widzialność: 8000 m
Mało chmury na wysokości 3000 ft
Rozproszone chmury na wysokości 8000 ft

TAF: HLLM 180500Z 1806/1906 VRB02KT 8000 FEW030 BECMG 1815/1817 06010KT 8000 FEW030 SCT080

Obserwacja i prognoza pogody dla ponad 4000 lotnisk (raport METAR i TAF).

Dostępne stacje oznaczono żółtymi i czerwonymi punktami na mapie.

Najedź kursorem aby zobaczyć nazwę stacji.

Kliknij aby zobaczyć obserwacje i prognozy pogody.

Aby zmienić mapę: kliknij na zielony przycisk z czarnym krzyżykiem, aby powiększyć; na zielony przycisk z myślnikiem, aby pomniejszyć; na zielone strzałki, aby przejść do map sąsiednich.


METAR-TAF: